Time;durP1;ratioP1;P1;durP2;ratioP2;P2;SDS_P1;SDS_P2;PMS_P1;PMS_P2;Temp;Humidity;BMP_temperature;BMP_pressure;BME280_temperature;BME280_humidity;BME280_pressure;Samples;Min_cycle;Max_cycle;Signal;HPM_P1;HPM_P2
2024/03/28 00:00:00;;;;;;;16.92;14.25;;;7.50;99.90;;;;;;7359893;19;20021;-64
2024/03/28 00:02:30;;;;;;;17.77;14.25;;;7.50;99.90;;;;;;7362632;19;20179;-64
2024/03/28 00:04:57;;;;;;;16.48;14.68;;;7.40;99.90;;;;;;7360024;19;20033;-64
2024/03/28 00:07:23;;;;;;;18.92;15.15;;;7.40;99.90;;;;;;7361318;19;20018;-68
2024/03/28 00:09:49;;;;;;;17.20;15.05;;;7.40;99.90;;;;;;7362310;19;20018;-63
2024/03/28 00:12:15;;;;;;;17.40;15.23;;;7.40;99.90;;;;;;7362604;19;20482;-64
2024/03/28 00:14:43;;;;;;;18.33;15.20;;;7.40;99.90;;;;;;7361734;19;20591;-63
2024/03/28 00:17:09;;;;;;;20.10;16.15;;;7.40;99.90;;;;;;7362350;19;20029;-63
2024/03/28 00:19:35;;;;;;;18.05;15.80;;;7.40;99.90;;;;;;7363257;19;20045;-64
2024/03/28 00:22:01;;;;;;;18.20;16.30;;;7.40;99.90;;;;;;7357913;19;20023;-69
2024/03/28 00:24:28;;;;;;;19.40;17.05;;;7.40;99.90;;;;;;7364022;19;20024;-70
2024/03/28 00:26:54;;;;;;;19.30;15.50;;;7.40;99.90;;;;;;7362048;19;20064;-70
2024/03/28 00:29:20;;;;;;;18.88;16.50;;;7.40;99.90;;;;;;7365653;19;21887;-69
2024/03/28 00:31:46;;;;;;;18.55;16.50;;;7.40;99.90;;;;;;7362778;19;20013;-64
2024/03/28 00:34:12;;;;;;;19.27;16.73;;;7.40;99.90;;;;;;7365169;19;20033;-68
2024/03/28 00:36:39;;;;;;;19.40;17.20;;;7.40;99.90;;;;;;7360635;19;20025;-63
2024/03/28 00:39:05;;;;;;;20.83;16.58;;;7.30;99.90;;;;;;7366878;19;20022;-69
2024/03/28 00:41:31;;;;;;;19.55;17.42;;;7.30;99.90;;;;;;7364006;19;21025;-69
2024/03/28 00:43:57;;;;;;;21.00;17.65;;;7.30;99.90;;;;;;7360891;19;20981;-68
2024/03/28 00:46:23;;;;;;;19.85;17.55;;;7.30;99.90;;;;;;7365422;19;20022;-62
2024/03/28 00:48:49;;;;;;;18.73;16.67;;;7.30;99.90;;;;;;7364179;19;20478;-63
2024/03/28 00:51:16;;;;;;;20.83;17.08;;;7.30;99.90;;;;;;7365547;19;20014;-63
2024/03/28 00:53:42;;;;;;;19.95;17.50;;;7.30;99.90;;;;;;7362765;19;20018;-63
2024/03/28 00:56:08;;;;;;;19.38;17.27;;;7.30;99.90;;;;;;7367117;19;20019;-68
2024/03/28 00:58:35;;;;;;;23.55;18.17;;;7.30;99.90;;;;;;7361431;19;20018;-68
2024/03/28 01:01:04;;;;;;;22.90;18.70;;;7.20;99.90;;;;;;7364129;19;20022;-63
2024/03/28 01:03:31;;;;;;;21.52;17.40;;;7.30;99.90;;;;;;7358852;19;20028;-67
2024/03/28 01:05:58;;;;;;;18.92;16.52;;;7.20;99.90;;;;;;7368676;19;20021;-64
2024/03/28 01:08:25;;;;;;;20.83;18.48;;;7.30;99.90;;;;;;7367277;19;20514;-63
2024/03/28 01:10:51;;;;;;;21.38;18.80;;;7.20;99.90;;;;;;7370649;19;20025;-67
2024/03/28 01:13:17;;;;;;;24.50;18.70;;;7.20;99.90;;;;;;7375111;19;20018;-63
2024/03/28 01:15:44;;;;;;;20.88;18.60;;;7.20;99.90;;;;;;7374034;19;20022;-68
2024/03/28 01:18:11;;;;;;;21.10;18.80;;;7.20;99.90;;;;;;7374190;19;20018;-68
2024/03/28 01:20:37;;;;;;;23.80;19.05;;;7.20;99.90;;;;;;7375005;19;20043;-67
2024/03/28 01:23:03;;;;;;;21.38;18.83;;;7.20;99.90;;;;;;7375011;19;20014;-63
2024/03/28 01:25:29;;;;;;;21.92;19.08;;;7.20;99.90;;;;;;7377452;19;20022;-63
2024/03/28 01:27:56;;;;;;;22.55;20.10;;;7.20;99.90;;;;;;7377323;19;20019;-63
2024/03/28 01:30:22;;;;;;;23.52;18.10;;;7.20;99.90;;;;;;7377852;19;20040;-63
2024/03/28 01:32:49;;;;;;;24.77;19.60;;;7.20;99.90;;;;;;7373525;19;20023;-63
2024/03/28 01:35:15;;;;;;;22.02;19.77;;;7.20;99.90;;;;;;7369556;19;20094;-69
2024/03/28 01:37:41;;;;;;;23.95;19.35;;;7.20;99.90;;;;;;7375791;19;20358;-68
2024/03/28 01:40:09;;;;;;;22.73;20.33;;;7.10;99.90;;;;;;7371633;19;20046;-67
2024/03/28 01:42:35;;;;;;;22.70;20.17;;;7.20;99.90;;;;;;7373456;19;20022;-69
2024/03/28 01:45:01;;;;;;;24.60;19.95;;;7.10;99.90;;;;;;7372429;19;20022;-69
2024/03/28 01:47:28;;;;;;;23.25;19.65;;;7.10;99.90;;;;;;7374922;19;20513;-68
2024/03/28 01:49:54;;;;;;;22.10;19.55;;;7.20;99.90;;;;;;7370310;19;20050;-69
2024/03/28 01:52:21;;;;;;;22.42;20.02;;;7.10;99.90;;;;;;7372766;19;20683;-68
2024/03/28 01:54:48;;;;;;;23.42;20.90;;;7.10;99.90;;;;;;7370924;19;20604;-63
2024/03/28 01:57:15;;;;;;;25.13;21.35;;;7.10;99.90;;;;;;7375926;19;20033;-63
2024/03/28 01:59:42;;;;;;;28.40;21.20;;;7.00;99.90;;;;;;7369406;19;20841;-63
2024/03/28 02:02:08;;;;;;;24.30;21.67;;;7.10;99.90;;;;;;7374168;19;20116;-68
2024/03/28 02:04:34;;;;;;;24.60;22.00;;;7.10;99.90;;;;;;7372421;19;20018;-63
2024/03/28 02:07:01;;;;;;;25.98;21.77;;;7.10;99.90;;;;;;7371631;19;20019;-68
2024/03/28 02:09:28;;;;;;;24.25;21.70;;;7.10;99.90;;;;;;7372874;19;20014;-63
2024/03/28 02:11:55;;;;;;;26.27;21.77;;;7.10;99.90;;;;;;7370421;19;20015;-66
2024/03/28 02:14:21;;;;;;;24.67;21.98;;;7.10;99.90;;;;;;7371399;19;20035;-63
2024/03/28 02:16:48;;;;;;;24.98;22.38;;;7.00;99.90;;;;;;7371671;19;20010;-63
2024/03/28 02:19:14;;;;;;;26.50;23.67;;;7.10;99.90;;;;;;7371466;19;20123;-68
2024/03/28 02:21:44;;;;;;;25.50;22.65;;;7.00;99.90;;;;;;7368733;19;20616;-63
2024/03/28 02:24:11;;;;;;;26.70;23.58;;;7.00;99.90;;;;;;7374190;19;20022;-62
2024/03/28 02:26:38;;;;;;;28.05;23.45;;;7.00;99.90;;;;;;7373070;19;20018;-64
2024/03/28 02:29:04;;;;;;;26.95;23.33;;;7.00;99.90;;;;;;7372606;19;20026;-63
2024/03/28 02:31:31;;;;;;;27.88;24.33;;;7.00;99.90;;;;;;7374089;19;20018;-63
2024/03/28 02:33:57;;;;;;;26.27;23.50;;;7.00;99.90;;;;;;7369413;19;20026;-63
2024/03/28 02:36:23;;;;;;;27.58;24.48;;;7.00;99.90;;;;;;7368391;19;20029;-64
2024/03/28 02:38:49;;;;;;;27.85;24.52;;;7.00;99.90;;;;;;7365059;19;20049;-68
2024/03/28 02:41:20;;;;;;;27.10;24.13;;;7.00;99.90;;;;;;7368423;19;20390;-70
2024/03/28 02:43:46;;;;;;;27.55;24.63;;;7.00;99.90;;;;;;7368213;19;20018;-68
2024/03/28 02:46:12;;;;;;;26.05;23.45;;;7.00;99.90;;;;;;7369731;19;20022;-63
2024/03/28 02:48:39;;;;;;;27.45;24.50;;;7.00;99.90;;;;;;7371622;19;22008;-67
2024/03/28 02:51:05;;;;;;;28.13;24.77;;;7.00;99.90;;;;;;7368863;19;20019;-63
2024/03/28 02:53:32;;;;;;;27.33;24.63;;;7.00;99.90;;;;;;7373578;19;20907;-63
2024/03/28 02:55:58;;;;;;;27.27;24.40;;;7.00;99.90;;;;;;7372235;19;20022;-68
2024/03/28 02:58:24;;;;;;;28.35;23.92;;;7.00;99.90;;;;;;7371767;19;20010;-67
2024/03/28 03:00:50;;;;;;;27.60;24.67;;;6.90;99.90;;;;;;7367270;19;20583;-62
2024/03/28 03:03:16;;;;;;;30.25;26.10;;;7.00;99.90;;;;;;7371078;19;20018;-62
2024/03/28 03:05:42;;;;;;;27.48;24.50;;;6.90;99.90;;;;;;7368198;19;20011;-68
2024/03/28 03:08:09;;;;;;;27.95;24.77;;;7.00;99.90;;;;;;7369427;19;20660;-68
2024/03/28 03:10:35;;;;;;;28.13;25.13;;;7.00;99.90;;;;;;7370135;19;20018;-63
2024/03/28 03:13:01;;;;;;;28.10;24.85;;;7.00;99.90;;;;;;7368230;19;20101;-64
2024/03/28 03:15:27;;;;;;;27.83;24.77;;;7.00;99.90;;;;;;7369713;19;20046;-63
2024/03/28 03:17:54;;;;;;;28.30;24.55;;;7.00;99.90;;;;;;7366193;19;20044;-68
2024/03/28 03:20:20;;;;;;;27.48;24.50;;;7.00;99.90;;;;;;7369652;19;20018;-68
2024/03/28 03:22:49;;;;;;;27.92;24.95;;;7.00;99.90;;;;;;7368478;19;20010;-63
2024/03/28 03:25:24;;;;;;;28.02;24.98;;;7.00;99.90;;;;;;7368263;19;20058;-67
2024/03/28 03:36:08;;;;;;;29.20;24.98;;;7.00;99.90;;;;;;7370331;19;20028;-68
2024/03/28 03:38:34;;;;;;;27.65;24.70;;;7.00;99.90;;;;;;7368144;19;20018;-68
2024/03/28 03:41:01;;;;;;;30.05;24.88;;;7.00;99.90;;;;;;7368246;19;20376;-63
2024/03/28 03:43:28;;;;;;;30.15;24.27;;;6.90;99.90;;;;;;7367375;19;20019;-67
2024/03/28 03:45:55;;;;;;;31.60;26.67;;;6.90;99.90;;;;;;7363773;19;20022;-63
2024/03/28 03:48:21;;;;;;;28.25;24.83;;;6.90;99.90;;;;;;7370706;19;20390;-68
2024/03/28 03:50:48;;;;;;;29.23;25.13;;;6.90;99.90;;;;;;7365815;19;20022;-63
2024/03/28 03:53:14;;;;;;;28.58;24.55;;;6.90;99.90;;;;;;7369532;19;20018;-62
2024/03/28 03:55:40;;;;;;;30.48;24.30;;;6.90;99.90;;;;;;7369657;19;20025;-63
2024/03/28 03:58:07;;;;;;;30.77;26.40;;;6.80;99.90;;;;;;7367742;19;20922;-68
2024/03/28 04:00:33;;;;;;;30.85;23.13;;;6.90;99.90;;;;;;7369095;19;20018;-68
2024/03/28 04:03:00;;;;;;;29.85;26.23;;;6.80;99.90;;;;;;7364687;19;20571;-62
2024/03/28 04:05:26;;;;;;;34.80;27.50;;;6.90;99.90;;;;;;7367937;19;20018;-69
2024/03/28 04:07:52;;;;;;;34.28;27.08;;;6.80;99.90;;;;;;7363419;19;20049;-64
2024/03/28 04:10:19;;;;;;;31.90;26.50;;;6.80;99.90;;;;;;7367890;19;20018;-68
2024/03/28 04:12:45;;;;;;;32.42;26.85;;;6.80;99.90;;;;;;7365370;19;20382;-62
2024/03/28 04:15:11;;;;;;;30.55;27.25;;;6.90;99.90;;;;;;7366256;19;20015;-68
2024/03/28 04:17:37;;;;;;;35.40;27.73;;;6.90;99.90;;;;;;7370343;19;20022;-63
2024/03/28 04:20:11;;;;;;;35.10;28.55;;;6.80;99.90;;;;;;7366414;19;20036;-69
2024/03/28 04:22:37;;;;;;;32.47;26.30;;;6.90;99.90;;;;;;7362174;19;20478;-63
2024/03/28 04:25:04;;;;;;;33.50;28.23;;;6.90;99.90;;;;;;7361197;19;20014;-63
2024/03/28 04:27:30;;;;;;;33.88;27.05;;;6.90;99.90;;;;;;7367555;19;20054;-67
2024/03/28 04:29:56;;;;;;;34.92;25.98;;;6.90;99.90;;;;;;7369143;19;20106;-67
2024/03/28 04:32:24;;;;;;;34.33;29.08;;;6.90;99.90;;;;;;7365542;19;20022;-69
2024/03/28 04:34:50;;;;;;;36.15;28.85;;;6.90;99.90;;;;;;7366346;19;20483;-69
2024/03/28 04:37:16;;;;;;;36.00;28.23;;;6.90;99.90;;;;;;7370311;19;20015;-63
2024/03/28 04:39:42;;;;;;;35.65;28.40;;;6.90;99.90;;;;;;7367256;19;20022;-63
2024/03/28 04:42:08;;;;;;;39.08;29.70;;;6.90;99.90;;;;;;7369772;19;20102;-69
2024/03/28 04:44:34;;;;;;;36.28;29.73;;;6.90;99.90;;;;;;7368309;19;20447;-69
2024/03/28 04:47:01;;;;;;;42.42;28.73;;;6.90;99.90;;;;;;7373285;19;20025;-68
2024/03/28 04:49:27;;;;;;;37.47;29.23;;;6.90;99.90;;;;;;7372184;19;20022;-63
2024/03/28 04:51:53;;;;;;;35.67;29.13;;;6.90;99.90;;;;;;7373215;19;20018;-68
2024/03/28 04:54:20;;;;;;;37.58;29.40;;;7.00;99.90;;;;;;7374868;19;20422;-62
2024/03/28 04:56:46;;;;;;;42.17;29.90;;;7.00;99.90;;;;;;7372216;19;20040;-62
2024/03/28 04:59:12;;;;;;;39.17;29.20;;;7.00;99.90;;;;;;7371858;19;20127;-62
2024/03/28 05:01:38;;;;;;;45.67;30.02;;;7.00;99.90;;;;;;7376039;19;20014;-69
2024/03/28 05:04:04;;;;;;;35.92;30.02;;;7.00;99.90;;;;;;7368776;19;20037;-63
2024/03/28 05:06:30;;;;;;;36.30;28.80;;;7.00;99.90;;;;;;7378352;19;20022;-63
2024/03/28 05:08:56;;;;;;;37.25;28.67;;;7.00;99.90;;;;;;7374090;19;20026;-63
2024/03/28 05:11:23;;;;;;;36.35;28.73;;;7.00;99.90;;;;;;7375682;19;20054;-63
2024/03/28 05:13:50;;;;;;;36.85;29.65;;;7.00;99.90;;;;;;7373004;19;20019;-63
2024/03/28 05:16:17;;;;;;;33.75;27.88;;;7.00;99.90;;;;;;7374028;19;20022;-64
2024/03/28 05:18:43;;;;;;;39.10;30.75;;;7.00;99.90;;;;;;7374474;19;20535;-64
2024/03/28 05:21:10;;;;;;;38.33;30.27;;;6.90;99.90;;;;;;7376528;19;20028;-63
2024/03/28 05:23:37;;;;;;;43.03;30.55;;;6.80;99.90;;;;;;7370808;19;20018;-65
2024/03/28 05:26:03;;;;;;;36.70;28.90;;;6.90;99.90;;;;;;7371100;19;20378;-63
2024/03/28 05:28:30;;;;;;;37.20;28.70;;;6.80;99.90;;;;;;7373406;19;20018;-69
2024/03/28 05:30:58;;;;;;;37.45;29.73;;;6.80;99.90;;;;;;7370751;19;20068;-63
2024/03/28 05:33:37;;;;;;;38.53;29.50;;;6.80;99.90;;;;;;7369020;19;20022;-68
2024/03/28 05:36:04;;;;;;;37.53;29.55;;;6.80;99.90;;;;;;7373281;19;20018;-69
2024/03/28 05:38:31;;;;;;;34.60;26.52;;;6.70;99.90;;;;;;7371536;19;20459;-63
2024/03/28 05:40:57;;;;;;;36.53;29.13;;;6.70;99.90;;;;;;7373889;19;20086;-62
2024/03/28 05:43:23;;;;;;;36.85;27.35;;;6.70;99.90;;;;;;7374155;19;20023;-64
2024/03/28 05:45:50;;;;;;;35.85;27.90;;;6.80;99.90;;;;;;7372691;19;20481;-63
2024/03/28 05:48:16;;;;;;;38.25;29.17;;;6.70;99.90;;;;;;7371804;19;20025;-63
2024/03/28 05:50:42;;;;;;;39.65;30.75;;;6.70;99.90;;;;;;7372512;19;20473;-63
2024/03/28 05:53:10;;;;;;;35.47;28.30;;;6.70;99.90;;;;;;7374476;19;20471;-64
2024/03/28 05:55:36;;;;;;;35.65;27.80;;;6.80;99.90;;;;;;7370650;19;20066;-64
2024/03/28 05:58:03;;;;;;;37.10;29.55;;;6.80;99.90;;;;;;7373403;19;20374;-69
2024/03/28 06:00:30;;;;;;;36.70;29.05;;;6.80;99.90;;;;;;7366357;19;20023;-67
2024/03/28 06:02:57;;;;;;;36.03;28.70;;;6.80;99.90;;;;;;7368845;19;20019;-62
2024/03/28 06:05:23;;;;;;;39.35;29.67;;;6.80;99.90;;;;;;7368768;19;20553;-68
2024/03/28 06:07:49;;;;;;;39.20;30.23;;;6.90;99.90;;;;;;7367916;19;20026;-68
2024/03/28 06:10:15;;;;;;;43.08;31.27;;;6.90;99.90;;;;;;7367056;19;20022;-69
2024/03/28 06:12:41;;;;;;;42.15;32.35;;;6.90;99.90;;;;;;7370656;19;20066;-62
2024/03/28 06:15:08;;;;;;;41.03;30.30;;;6.90;99.90;;;;;;7368804;19;20368;-68
2024/03/28 06:17:35;;;;;;;38.83;29.70;;;6.90;99.90;;;;;;7363109;19;20018;-68
2024/03/28 06:20:01;;;;;;;38.03;29.67;;;6.90;99.90;;;;;;7362059;19;20014;-67
2024/03/28 06:22:28;;;;;;;39.67;30.30;;;7.00;99.90;;;;;;7365980;19;20130;-64
2024/03/28 06:24:55;;;;;;;37.17;30.17;;;7.00;99.90;;;;;;7367915;19;20023;-63
2024/03/28 06:27:21;;;;;;;39.58;29.98;;;7.00;99.90;;;;;;7378143;19;20018;-62
2024/03/28 06:29:50;;;;;;;38.00;29.23;;;7.00;99.90;;;;;;7370049;19;20562;-63
2024/03/28 06:32:24;;;;;;;38.53;29.83;;;7.10;99.90;;;;;;7375791;19;20029;-64
2024/03/28 06:34:55;;;;;;;36.13;28.00;;;7.10;99.90;;;;;;7367545;19;20029;-71
2024/03/28 06:37:22;;;;;;;36.80;28.73;;;7.10;99.90;;;;;;7366986;19;20018;-62
2024/03/28 06:39:51;;;;;;;36.75;28.90;;;7.20;99.90;;;;;;7368470;19;20018;-69
2024/03/28 06:42:18;;;;;;;37.63;29.13;;;7.20;99.90;;;;;;7363120;19;20038;-68
2024/03/28 06:44:48;;;;;;;42.33;28.98;;;7.30;99.90;;;;;;7367456;19;20599;-69
2024/03/28 06:47:15;;;;;;;36.67;29.13;;;7.30;99.90;;;;;;7370590;19;20025;-69
2024/03/28 06:49:42;;;;;;;35.10;28.58;;;7.40;99.90;;;;;;7365513;19;20022;-70
2024/03/28 06:52:08;;;;;;;36.97;29.05;;;7.40;99.90;;;;;;7362235;19;20030;-68
2024/03/28 06:54:35;;;;;;;35.65;26.60;;;7.40;99.90;;;;;;7365461;19;20772;-68
2024/03/28 06:57:04;;;;;;;35.13;25.15;;;7.50;99.90;;;;;;7370945;19;20054;-63
2024/03/28 06:59:31;;;;;;;35.42;27.00;;;7.60;99.90;;;;;;7363699;19;20018;-63
2024/03/28 07:01:57;;;;;;;32.40;25.75;;;7.60;99.90;;;;;;7367018;19;20029;-63
2024/03/28 07:04:23;;;;;;;31.38;24.50;;;7.70;99.90;;;;;;7364522;19;20015;-63
2024/03/28 07:06:50;;;;;;;32.92;25.45;;;7.70;99.90;;;;;;7371685;19;20018;-63
2024/03/28 07:09:16;;;;;;;33.33;24.92;;;7.80;99.90;;;;;;7372143;19;20093;-63
2024/03/28 07:11:45;;;;;;;30.70;24.05;;;7.90;99.90;;;;;;7369108;19;20558;-63
2024/03/28 07:14:12;;;;;;;31.33;25.23;;;8.00;99.90;;;;;;7371707;19;20043;-64
2024/03/28 07:16:38;;;;;;;30.73;24.45;;;8.10;99.90;;;;;;7368354;19;20018;-63
2024/03/28 07:19:05;;;;;;;29.45;21.92;;;8.20;99.90;;;;;;7371061;19;20014;-63
2024/03/28 07:21:31;;;;;;;29.30;21.60;;;8.30;99.90;;;;;;7372709;19;20018;-63
2024/03/28 07:23:58;;;;;;;25.95;21.05;;;8.50;99.90;;;;;;7368437;19;20022;-68
2024/03/28 07:26:25;;;;;;;24.13;19.80;;;8.70;99.90;;;;;;7370314;19;20765;-70
2024/03/28 07:28:53;;;;;;;29.15;22.13;;;9.00;99.90;;;;;;7370894;19;20022;-63
2024/03/28 07:31:19;;;;;;;25.48;19.83;;;9.20;99.90;;;;;;7372845;19;20030;-63
2024/03/28 07:33:46;;;;;;;22.90;17.50;;;9.40;99.90;;;;;;7368614;19;20788;-70
2024/03/28 07:36:12;;;;;;;25.17;18.67;;;9.50;99.90;;;;;;7371189;19;20047;-70
2024/03/28 07:38:38;;;;;;;23.58;18.23;;;9.50;99.90;;;;;;7369288;19;20029;-63
2024/03/28 07:41:04;;;;;;;21.05;17.10;;;9.60;99.90;;;;;;7370077;19;20019;-64
2024/03/28 07:43:30;;;;;;;20.45;16.83;;;9.70;99.90;;;;;;7366224;19;20987;-63
2024/03/28 07:46:03;;;;;;;21.27;17.45;;;9.80;99.90;;;;;;7369511;19;20018;-66
2024/03/28 07:48:31;;;;;;;20.65;16.20;;;9.90;99.90;;;;;;7373549;19;20034;-70
2024/03/28 07:50:58;;;;;;;18.83;15.50;;;9.90;99.90;;;;;;7366250;19;20022;-64
2024/03/28 07:53:25;;;;;;;20.67;17.35;;;9.90;99.90;;;;;;7372177;19;20414;-69
2024/03/28 07:55:52;;;;;;;19.38;15.90;;;9.70;99.90;;;;;;7372022;19;20104;-70
2024/03/28 07:58:20;;;;;;;19.10;14.98;;;9.70;99.90;;;;;;7372595;19;20026;-70
2024/03/28 08:00:47;;;;;;;17.75;14.02;;;9.70;99.90;;;;;;7370080;19;20514;-63
2024/03/28 08:03:18;;;;;;;18.30;14.30;;;9.70;99.90;;;;;;7368088;19;21253;-64
2024/03/28 08:05:49;;;;;;;16.95;12.90;;;9.70;99.90;;;;;;7368642;19;20033;-63
2024/03/28 08:08:16;;;;;;;18.00;15.40;;;9.60;99.90;;;;;;7365322;19;20018;-70
2024/03/28 08:10:43;;;;;;;18.30;14.98;;;9.70;99.90;;;;;;7372935;19;20022;-64
2024/03/28 08:13:09;;;;;;;17.05;14.18;;;10.10;99.90;;;;;;7364491;19;20018;-64
2024/03/28 08:15:37;;;;;;;18.13;14.60;;;10.90;99.90;;;;;;7372464;19;20051;-64
2024/03/28 08:18:03;;;;;;;14.80;12.45;;;11.80;99.90;;;;;;7369544;19;20044;-65
2024/03/28 08:20:30;;;;;;;16.10;13.05;;;12.40;99.90;;;;;;7376786;19;20026;-63
2024/03/28 08:22:56;;;;;;;15.13;11.73;;;12.80;99.90;;;;;;7369272;19;20036;-71
2024/03/28 08:25:24;;;;;;;13.68;11.48;;;12.60;99.90;;;;;;7377769;19;20025;-71
2024/03/28 08:27:51;;;;;;;13.85;11.38;;;12.10;99.90;;;;;;7376958;19;20040;-70
2024/03/28 08:30:17;;;;;;;15.38;13.10;;;11.50;99.90;;;;;;7378156;19;20018;-70
2024/03/28 08:32:44;;;;;;;14.32;11.30;;;11.10;99.90;;;;;;7379932;19;20022;-71
2024/03/28 08:35:10;;;;;;;13.38;11.48;;;10.70;99.90;;;;;;7368136;19;20967;-64
2024/03/28 08:37:39;;;;;;;12.73;10.98;;;10.50;99.90;;;;;;7373001;19;20039;-65
2024/03/28 08:40:09;;;;;;;13.10;10.45;;;10.30;99.90;;;;;;7375348;19;20501;-65
2024/03/28 08:42:39;;;;;;;13.10;9.80;;;10.30;99.90;;;;;;7372979;19;20037;-64
2024/03/28 08:45:11;;;;;;;14.55;11.45;;;10.20;99.90;;;;;;7373295;19;20029;-65
2024/03/28 08:47:44;;;;;;;;;;;10.20;99.90;;;;;;7375510;19;20023;-64
2024/03/28 08:50:13;;;;;;;12.48;9.90;;;10.20;99.90;;;;;;7378869;19;19926;-71
2024/03/28 08:52:40;;;;;;;12.82;11.32;;;10.30;99.90;;;;;;7379042;19;20018;-69
2024/03/28 08:55:10;;;;;;;12.50;10.35;;;10.30;99.90;;;;;;7377707;19;20686;-69
2024/03/28 08:57:40;;;;;;;11.23;10.02;;;10.40;99.90;;;;;;7377205;19;20024;-64
2024/03/28 09:00:14;;;;;;;12.40;9.23;;;10.70;99.90;;;;;;7374096;19;20024;-70
2024/03/28 09:02:41;;;;;;;11.65;10.13;;;11.00;99.90;;;;;;7373588;19;20026;-65
2024/03/28 09:05:09;;;;;;;12.15;9.77;;;11.40;99.90;;;;;;7374330;19;20026;-61
2024/03/28 09:07:36;;;;;;;10.52;9.43;;;11.80;99.90;;;;;;7375109;19;20018;-68
2024/03/28 09:10:05;;;;;;;10.45;8.68;;;12.60;99.90;;;;;;7375253;19;20024;-66
2024/03/28 09:12:36;;;;;;;9.30;7.30;;;13.60;99.90;;;;;;7369846;19;20781;-67
2024/03/28 09:15:10;;;;;;;10.45;7.05;;;13.90;99.90;;;;;;7371558;19;20026;-63
2024/03/28 09:17:36;;;;;;;7.80;5.93;;;13.60;99.90;;;;;;7369159;19;20018;-63
2024/03/28 09:20:06;;;;;;;7.78;6.72;;;14.00;99.90;;;;;;7371980;19;20036;-68
2024/03/28 09:22:34;;;;;;;7.90;5.93;;;14.50;99.90;;;;;;7370725;19;20402;-68
2024/03/28 09:25:02;;;;;;;6.93;5.55;;;14.50;99.90;;;;;;7370889;19;20023;-67
2024/03/28 09:27:31;;;;;;;5.07;4.07;;;14.90;99.90;;;;;;7374438;19;20131;-67
2024/03/28 09:29:57;;;;;;;6.93;5.00;;;15.00;99.90;;;;;;7368783;19;20078;-68
2024/03/28 09:32:23;;;;;;;5.93;4.10;;;15.50;99.90;;;;;;7378793;19;20056;-63
2024/03/28 09:34:50;;;;;;;5.30;4.40;;;15.90;99.90;;;;;;7372201;19;20021;-62
2024/03/28 09:37:19;;;;;;;5.05;3.80;;;15.20;99.90;;;;;;7374343;19;20505;-63
2024/03/28 09:39:47;;;;;;;6.45;4.88;;;15.70;99.90;;;;;;7370464;19;20021;-68
2024/03/28 09:42:19;;;;;;;4.68;3.83;;;15.90;99.90;;;;;;7372847;19;20015;-69
2024/03/28 09:44:50;;;;;;;5.28;3.67;;;15.20;99.90;;;;;;7372334;19;20033;-68
2024/03/28 09:47:18;;;;;;;5.43;4.20;;;14.40;99.90;;;;;;7371945;19;20029;-69
2024/03/28 09:49:45;;;;;;;5.00;4.15;;;13.80;99.90;;;;;;7373576;19;20018;-63
2024/03/28 09:52:13;;;;;;;4.88;4.00;;;13.30;99.90;;;;;;7371798;19;20018;-68
2024/03/28 09:54:44;;;;;;;5.93;4.32;;;12.90;99.90;;;;;;7362832;19;20512;-67
2024/03/28 09:57:10;;;;;;;4.50;3.60;;;12.60;99.90;;;;;;7372861;19;20674;-67
2024/03/28 09:59:36;;;;;;;5.50;3.45;;;12.20;99.90;;;;;;7371242;19;20018;-62
2024/03/28 10:02:12;;;;;;;4.13;3.20;;;11.90;99.90;;;;;;7369771;19;20026;-64
2024/03/28 10:04:43;;;;;;;4.18;3.45;;;11.80;99.90;;;;;;7373927;19;20058;-63
2024/03/28 10:07:10;;;;;;;4.18;3.25;;;11.80;99.90;;;;;;7367495;19;20788;-63
2024/03/28 10:09:37;;;;;;;5.45;3.45;;;11.70;99.90;;;;;;7370838;19;20029;-63
2024/03/28 10:12:13;;;;;;;3.97;3.15;;;11.60;99.90;;;;;;7366647;19;20039;-65
2024/03/28 10:14:42;;;;;;;4.85;2.92;;;11.50;99.90;;;;;;7372728;19;20106;-63
2024/03/28 10:17:12;;;;;;;4.22;3.00;;;11.60;99.90;;;;;;7367234;19;20603;-62
2024/03/28 10:19:42;;;;;;;4.50;3.30;;;11.60;99.90;;;;;;7373683;19;20577;-63
2024/03/28 10:22:12;;;;;;;4.80;3.50;;;11.60;99.90;;;;;;7370130;19;20032;-63
2024/03/28 10:24:46;;;;;;;4.95;3.53;;;11.50;99.90;;;;;;7366798;19;20376;-62
2024/03/28 10:27:18;;;;;;;4.38;3.35;;;11.50;99.90;;;;;;7370343;19;20383;-62
2024/03/28 10:29:53;;;;;;;5.38;3.53;;;11.30;99.90;;;;;;7370324;19;20611;-63
2024/03/28 10:32:20;;;;;;;4.30;3.60;;;11.30;99.90;;;;;;7369263;19;20942;-65
2024/03/28 10:34:51;;;;;;;5.80;4.10;;;11.10;99.90;;;;;;7373791;19;20018;-63
2024/03/28 10:37:21;;;;;;;5.07;3.35;;;10.80;99.90;;;;;;7370532;19;20054;-62
2024/03/28 10:39:48;;;;;;;9.70;2.75;;;10.80;99.90;;;;;;7366567;19;20018;-62
2024/03/28 10:42:15;;;;;;;3.78;2.53;;;10.60;99.90;;;;;;7369483;19;20026;-60
2024/03/28 10:44:43;;;;;;;3.00;2.20;;;10.40;99.90;;;;;;7372270;19;20030;-63
2024/03/28 10:47:12;;;;;;;3.92;2.40;;;10.30;99.90;;;;;;7364153;19;20019;-63
2024/03/28 10:49:57;;;;;;;4.32;2.60;;;10.20;99.90;;;;;;7368040;19;20862;-64
2024/03/28 10:52:29;;;;;;;3.65;2.72;;;10.20;99.90;;;;;;7375104;19;20840;-62
2024/03/28 10:55:05;;;;;;;3.63;2.67;;;10.00;99.90;;;;;;7371746;19;20022;-62
2024/03/28 10:57:37;;;;;;;6.03;3.00;;;9.90;99.90;;;;;;7370803;19;20057;-63
2024/03/28 11:00:03;;;;;;;;;;;9.70;99.90;;;;;;7373249;19;20517;-63
2024/03/28 11:02:32;;;;;;;2.03;1.30;;;9.50;99.90;;;;;;7372661;19;19918;-63
2024/03/28 11:05:01;;;;;;;1.58;1.27;;;9.10;99.90;;;;;;7374102;19;20502;-62
2024/03/28 11:07:29;;;;;;;1.83;1.20;;;8.80;99.90;;;;;;7371794;19;20022;-63
2024/03/28 11:09:55;;;;;;;1.83;1.25;;;8.60;99.90;;;;;;7373150;19;20474;-63
2024/03/28 11:12:22;;;;;;;2.38;1.63;;;8.40;99.90;;;;;;7370620;19;20022;-63
2024/03/28 11:14:55;;;;;;;2.63;1.88;;;8.30;99.90;;;;;;7373261;19;20018;-65
2024/03/28 11:17:21;;;;;;;2.75;2.00;;;8.20;99.90;;;;;;7372080;19;20106;-63
2024/03/28 11:20:03;;;;;;;2.63;1.90;;;7.90;99.90;;;;;;7372828;19;20026;-63
2024/03/28 11:22:30;;;;;;;4.00;2.35;;;7.80;99.90;;;;;;7372054;19;20022;-62
2024/03/28 11:24:56;;;;;;;4.05;2.33;;;7.50;99.90;;;;;;7369904;19;20025;-63
2024/03/28 11:27:23;;;;;;;3.45;2.55;;;7.40;99.90;;;;;;7372412;19;20053;-63
2024/03/28 11:30:04;;;;;;;3.15;2.63;;;7.40;99.90;;;;;;7369290;19;20940;-65
2024/03/28 11:32:30;;;;;;;4.85;3.50;;;7.30;99.90;;;;;;7371633;19;20019;-64
2024/03/28 11:35:08;;;;;;;4.55;3.47;;;7.40;99.90;;;;;;7366670;19;20019;-65
2024/03/28 11:37:35;;;;;;;4.75;3.90;;;7.50;99.90;;;;;;7373708;19;20616;-65
2024/03/28 11:40:02;;;;;;;4.53;3.30;;;7.60;99.90;;;;;;7373824;19;20872;-65
2024/03/28 11:42:30;;;;;;;3.70;2.80;;;7.60;99.90;;;;;;7374064;19;20022;-66
2024/03/28 11:45:06;;;;;;;5.40;3.38;;;7.70;99.90;;;;;;7372376;19;20025;-61
2024/03/28 11:47:32;;;;;;;3.95;3.00;;;7.80;99.90;;;;;;7374527;19;20023;-61
2024/03/28 11:50:11;;;;;;;3.97;2.72;;;7.80;99.90;;;;;;7372868;19;20030;-66
2024/03/28 11:52:38;;;;;;;3.72;2.50;;;7.80;99.90;;;;;;7369933;19;20026;-67
2024/03/28 11:55:06;;;;;;;2.95;2.35;;;7.80;99.90;;;;;;7367297;19;20023;-61
2024/03/28 11:57:32;;;;;;;4.38;1.90;;;7.70;99.90;;;;;;7369665;19;20025;-61
2024/03/28 12:00:06;;;;;;;2.75;1.75;;;7.70;99.90;;;;;;7369210;19;20022;-62
2024/03/28 12:02:38;;;;;;;2.42;1.70;;;7.70;99.90;;;;;;7368926;19;20015;-61
2024/03/28 12:05:07;;;;;;;3.00;1.88;;;7.70;99.90;;;;;;7368682;19;20022;-62
2024/03/28 12:07:33;;;;;;;2.60;2.00;;;7.80;99.90;;;;;;7369647;19;20078;-66
2024/03/28 12:09:59;;;;;;;2.72;1.90;;;7.80;99.90;;;;;;7365634;19;20022;-62
2024/03/28 12:12:26;;;;;;;2.00;1.42;;;7.80;99.90;;;;;;7368908;19;20019;-62
2024/03/28 12:15:00;;;;;;;1.95;1.58;;;7.80;99.90;;;;;;7368455;19;20019;-62
2024/03/28 12:17:28;;;;;;;2.33;1.67;;;7.70;99.90;;;;;;7364774;19;20015;-62
2024/03/28 12:20:04;;;;;;;2.83;1.75;;;7.90;99.90;;;;;;7371458;19;20049;-62
2024/03/28 12:22:30;;;;;;;1.88;1.55;;;7.90;99.90;;;;;;7367816;19;20029;-62
2024/03/28 12:24:57;;;;;;;1.88;1.33;;;7.90;99.90;;;;;;7365839;19;20018;-63
2024/03/28 12:27:23;;;;;;;4.10;1.45;;;7.90;99.90;;;;;;7370575;19;20018;-63
2024/03/28 12:29:50;;;;;;;2.10;1.60;;;7.90;99.90;;;;;;7367211;19;20018;-62
2024/03/28 12:32:16;;;;;;;1.42;1.33;;;7.90;99.90;;;;;;7367815;19;20022;-64
2024/03/28 12:34:53;;;;;;;1.90;1.55;;;7.90;99.90;;;;;;7370371;19;20017;-61
2024/03/28 12:37:19;;;;;;;3.10;1.67;;;7.80;99.90;;;;;;7368648;19;20428;-60
2024/03/28 12:39:45;;;;;;;2.13;1.80;;;7.80;99.90;;;;;;7368299;19;20048;-61
2024/03/28 12:42:12;;;;;;;1.75;1.60;;;7.70;99.90;;;;;;7371204;19;20779;-60
2024/03/28 12:44:38;;;;;;;2.72;1.70;;;7.70;99.90;;;;;;7367359;19;20058;-60
2024/03/28 12:47:05;;;;;;;2.75;1.88;;;7.60;99.90;;;;;;7369484;19;20019;-60
2024/03/28 12:49:33;;;;;;;2.35;1.92;;;7.60;99.90;;;;;;7370303;19;20050;-60